Time;durP1;ratioP1;P1;durP2;ratioP2;P2;SDS_P1;SDS_P2;PMS_P1;PMS_P2;Temp;Humidity;BMP_temperature;BMP_pressure;BME280_temperature;BME280_humidity;BME280_pressure;Samples;Min_cycle;Max_cycle;Signal;HPM_P1;HPM_P2
2021/11/18 00:01:16;;;;;;;0.80;0.40;;;;;;;10.47;100.00;100765.75;5040041;28;20056;-52
2021/11/18 00:04:20;;;;;;;1.48;0.52;;;;;;;10.46;100.00;100766.97;5039172;28;20542;-52
2021/11/18 00:07:23;;;;;;;9.15;1.02;;;;;;;10.38;100.00;100759.31;5040716;28;20091;-52
2021/11/18 00:10:36;;;;;;;6.55;0.70;;;;;;;10.30;100.00;100763.59;5041853;28;20650;-52
2021/11/18 00:13:44;;;;;;;0.82;0.65;;;;;;;10.27;100.00;100768.06;5046397;28;20106;-52
2021/11/18 00:16:47;;;;;;;0.70;0.55;;;;;;;9.89;100.00;100778.50;5042074;28;20181;-51
2021/11/18 00:19:50;;;;;;;1.27;0.60;;;;;;;9.73;100.00;100786.97;5040347;28;20044;-52
2021/11/18 00:22:54;;;;;;;2.40;0.98;;;;;;;9.96;100.00;100789.41;5038306;28;20082;-52
2021/11/18 00:25:58;;;;;;;7.47;1.77;;;;;;;10.20;100.00;100793.34;5036912;28;20031;-52
2021/11/18 00:29:01;;;;;;;3.80;1.23;;;;;;;10.09;100.00;100789.38;5049897;28;20376;-52
2021/11/18 00:32:04;;;;;;;0.68;0.68;;;;;;;9.93;100.00;100799.41;5074804;28;20144;-51
2021/11/18 00:35:10;;;;;;;0.70;0.52;;;;;;;9.81;100.00;100797.41;5074737;28;20044;-51
2021/11/18 00:38:14;;;;;;;13.35;0.70;;;;;;;9.71;100.00;100800.56;5073636;28;20079;-51
2021/11/18 00:41:18;;;;;;;0.73;0.65;;;;;;;9.59;100.00;100804.91;5072648;28;20381;-52
2021/11/18 00:44:21;;;;;;;1.50;0.52;;;;;;;9.67;100.00;100806.25;5072800;28;20093;-51
2021/11/18 00:47:24;;;;;;;18.58;2.00;;;;;;;9.71;100.00;100806.91;5083544;28;20097;-52
2021/11/18 00:50:32;;;;;;;0.95;0.52;;;;;;;9.85;100.00;100808.44;5072784;28;20047;-52
2021/11/18 00:53:40;;;;;;;2.10;0.57;;;;;;;9.92;100.00;100800.63;5072362;28;20048;-52
2021/11/18 00:56:43;;;;;;;0.60;0.55;;;;;;;9.86;100.00;100810.00;5072810;28;20106;-51
2021/11/18 00:59:46;;;;;;;0.43;0.30;;;;;;;9.87;100.00;100808.78;5071835;28;20095;-52
2021/11/18 01:02:50;;;;;;;1.75;0.98;;;;;;;9.96;100.00;100806.09;5072266;28;20044;-52
2021/11/18 01:05:54;;;;;;;13.55;0.73;;;;;;;9.72;100.00;100799.34;5072065;28;20515;-52
2021/11/18 01:08:57;;;;;;;1.65;0.70;;;;;;;10.02;100.00;100798.72;5072326;28;20048;-51
2021/11/18 01:12:00;;;;;;;1.00;0.45;;;;;;;10.06;100.00;100798.59;5071764;28;20047;-52
2021/11/18 01:15:06;;;;;;;7.30;1.27;;;;;;;10.13;100.00;100810.31;5082414;28;20173;-52
2021/11/18 01:18:09;;;;;;;2.05;1.13;;;;;;;10.19;100.00;100791.81;5088409;28;20042;-51
2021/11/18 01:21:12;;;;;;;13.48;0.85;;;;;;;10.20;100.00;100785.00;5072478;28;20038;-51
2021/11/18 01:24:16;;;;;;;5.68;2.17;;;;;;;10.16;100.00;100780.78;5075139;28;20220;-51
2021/11/18 01:27:19;;;;;;;2.28;0.73;;;;;;;10.18;100.00;100784.69;5081431;28;20083;-52
2021/11/18 01:30:25;;;;;;;0.57;0.38;;;;;;;10.27;100.00;100775.63;5071498;28;20403;-52
2021/11/18 01:33:28;;;;;;;1.25;0.45;;;;;;;10.12;100.00;100780.13;5071988;28;20055;-51
2021/11/18 01:36:31;;;;;;;0.95;0.77;;;;;;;10.23;100.00;100772.19;5071773;28;20051;-52
2021/11/18 01:39:34;;;;;;;1.75;0.52;;;;;;;10.37;100.00;100775.25;5071170;28;20118;-52
2021/11/18 01:42:38;;;;;;;1.67;0.63;;;;;;;10.56;100.00;100784.53;5070877;28;20047;-51
2021/11/18 01:45:42;;;;;;;0.50;0.50;;;;;;;10.64;100.00;100775.47;5071535;28;20085;-51
2021/11/18 01:48:47;;;;;;;0.55;0.45;;;;;;;10.71;100.00;100768.06;5071147;28;20089;-51
2021/11/18 01:51:54;;;;;;;0.50;0.28;;;;;;;10.85;100.00;100762.00;5071070;28;20101;-51
2021/11/18 01:54:59;;;;;;;3.72;0.65;;;;;;;10.89;100.00;100774.56;5070981;28;20613;-52
2021/11/18 01:58:02;;;;;;;1.67;0.77;;;;;;;11.01;100.00;100772.91;5070142;28;20097;-51
2021/11/18 02:01:07;;;;;;;2.55;1.33;;;;;;;11.16;100.00;100771.13;5071500;28;20048;-52
2021/11/18 02:04:17;;;;;;;0.20;0.20;;;;;;;11.27;100.00;100763.13;5070965;28;20507;-52
2021/11/18 02:07:20;;;;;;;0.32;0.32;;;;;;;11.39;100.00;100749.06;5071184;28;20089;-52
2021/11/18 02:10:31;;;;;;;1.17;0.50;;;;;;;11.57;100.00;100731.63;5072284;28;20468;-52
2021/11/18 02:13:35;;;;;;;10.95;0.98;;;;;;;11.73;100.00;100744.56;5070995;28;20503;-52
2021/11/18 02:16:38;;;;;;;6.22;0.60;;;;;;;11.76;100.00;100744.41;5071158;28;20523;-52
2021/11/18 02:19:49;;;;;;;3.60;0.52;;;;;;;11.71;100.00;100738.66;5072339;28;20107;-52
2021/11/18 02:22:53;;;;;;;1.95;0.98;;;;;;;11.53;100.00;100739.38;5071269;28;20063;-52
2021/11/18 02:25:59;;;;;;;6.25;1.15;;;;;;;11.68;100.00;100729.19;5072411;28;20092;-51
2021/11/18 02:29:07;;;;;;;2.67;0.20;;;;;;;11.85;100.00;100724.09;5072199;28;20043;-51
2021/11/18 02:32:14;;;;;;;6.50;0.60;;;;;;;11.98;100.00;100722.72;5072272;28;20097;-51
2021/11/18 02:35:23;;;;;;;0.73;0.73;;;;;;;12.10;100.00;100730.19;5072053;28;20436;-52
2021/11/18 02:38:26;;;;;;;0.93;0.40;;;;;;;12.19;100.00;100738.56;5072429;28;20059;-52
2021/11/18 02:41:29;;;;;;;1.40;0.60;;;;;;;12.36;100.00;100729.88;5071933;28;20385;-51
2021/11/18 02:44:32;;;;;;;1.85;0.32;;;;;;;12.47;100.00;100730.97;5072338;28;20089;-52
2021/11/18 02:47:36;;;;;;;11.50;0.63;;;;;;;12.57;100.00;100738.09;5072138;28;20145;-52
2021/11/18 02:50:42;;;;;;;0.30;0.30;;;;;;;12.60;100.00;100734.38;5072419;28;20075;-52
2021/11/18 02:53:47;;;;;;;0.90;0.40;;;;;;;12.66;100.00;100737.28;5071938;28;20043;-52
2021/11/18 02:56:52;;;;;;;0.80;0.60;;;;;;;12.66;100.00;100748.47;5072144;28;20039;-52
2021/11/18 02:59:55;;;;;;;11.80;0.68;;;;;;;12.66;100.00;100754.06;5072159;28;20046;-52
2021/11/18 03:02:58;;;;;;;0.30;0.22;;;;;;;12.73;100.00;100762.13;5077709;28;20372;-51
2021/11/18 03:06:02;;;;;;;2.47;0.85;;;;;;;12.76;100.00;100758.38;5071995;28;20060;-52
2021/11/18 03:09:05;;;;;;;3.47;0.43;;;;;;;12.79;100.00;100757.47;5074102;28;20048;-52
2021/11/18 03:12:08;;;;;;;0.20;0.20;;;;;;;12.77;100.00;100759.94;5082390;28;20110;-52
2021/11/18 03:15:13;;;;;;;1.00;0.43;;;;;;;12.82;100.00;100748.91;5076166;28;20505;-52
2021/11/18 03:18:16;;;;;;;3.83;0.73;;;;;;;12.89;100.00;100745.00;5075724;28;20056;-52
2021/11/18 03:21:23;;;;;;;2.28;0.55;;;;;;;12.90;100.00;100740.97;5075995;28;20043;-52
2021/11/18 03:24:26;;;;;;;1.98;0.80;;;;;;;12.84;100.00;100737.25;5076287;28;20392;-52
2021/11/18 03:27:29;;;;;;;1.13;0.55;;;;;;;12.84;100.00;100726.09;5075965;28;20124;-52
2021/11/18 03:30:35;;;;;;;0.10;0.10;;;;;;;12.73;100.00;100731.38;5075930;28;20044;-52
2021/11/18 03:33:42;;;;;;;0.57;0.40;;;;;;;12.71;100.00;100723.44;5082945;28;20123;-51
2021/11/18 03:36:46;;;;;;;14.48;0.50;;;;;;;12.76;100.00;100722.03;5075621;28;20040;-52
2021/11/18 03:39:49;;;;;;;6.65;0.45;;;;;;;12.91;100.00;100711.75;5075139;28;20043;-52
2021/11/18 03:42:53;;;;;;;0.10;0.10;;;;;;;12.91;100.00;100706.94;5075179;28;20093;-52
2021/11/18 03:45:56;;;;;;;0.15;0.15;;;;;;;12.85;100.00;100697.66;5075604;28;20097;-52
2021/11/18 03:48:59;;;;;;;0.15;0.15;;;;;;;12.81;100.00;100699.84;5075428;28;20094;-52
2021/11/18 03:52:06;;;;;;;0.20;0.20;;;;;;;12.80;100.00;100694.69;5083807;28;20129;-52
2021/11/18 03:55:12;;;;;;;6.22;0.77;;;;;;;12.68;100.00;100701.25;5075604;28;20426;-52
2021/11/18 03:58:16;;;;;;;0.85;0.50;;;;;;;12.62;100.00;100703.94;5075304;28;20063;-52
2021/11/18 04:01:20;;;;;;;0.43;0.43;;;;;;;12.61;100.00;100701.59;5074985;28;20090;-52
2021/11/18 04:04:27;;;;;;;1.52;0.43;;;;;;;12.72;100.00;100696.28;5080833;28;20497;-52
2021/11/18 04:07:37;;;;;;;0.10;0.10;;;;;;;12.84;100.00;100703.72;5075024;28;20055;-52
2021/11/18 04:10:41;;;;;;;0.57;0.57;;;;;;;12.80;100.00;100708.69;5078223;28;20051;-52
2021/11/18 04:13:44;;;;;;;0.32;0.30;;;;;;;12.84;100.00;100707.28;5074355;28;20119;-52
2021/11/18 04:16:48;;;;;;;0.20;0.10;;;;;;;12.69;100.00;100711.22;5074360;28;20043;-52
2021/11/18 04:19:50;;;;;;;0.63;0.15;;;;;;;12.82;100.00;100711.81;5073799;28;20043;-52
2021/11/18 04:22:55;;;;;;;1.58;0.68;;;;;;;12.93;100.00;100718.44;5074463;28;20388;-52
2021/11/18 04:25:58;;;;;;;0.68;0.45;;;;;;;13.00;100.00;100713.75;5075156;28;20128;-52
2021/11/18 04:29:01;;;;;;;0.73;0.40;;;;;;;13.08;100.00;100704.56;5074902;28;20450;-52
2021/11/18 04:32:08;;;;;;;0.10;0.00;;;;;;;13.07;100.00;100703.03;5074994;28;20373;-52
2021/11/18 04:35:12;;;;;;;0.20;0.20;;;;;;;13.01;100.00;100685.31;5074710;28;20046;-52
2021/11/18 04:38:15;;;;;;;0.25;0.20;;;;;;;12.93;100.00;100678.50;5074948;28;20039;-52
2021/11/18 04:41:19;;;;;;;0.10;0.10;;;;;;;12.75;100.00;100675.78;5074964;28;20116;-52
2021/11/18 04:44:22;;;;;;;14.90;0.25;;;;;;;12.64;100.00;100683.88;5074469;28;20055;-51
2021/11/18 04:47:25;;;;;;;5.57;0.57;;;;;;;12.62;100.00;100686.38;5074226;28;20048;-52
2021/11/18 04:50:29;;;;;;;11.70;0.43;;;;;;;12.60;100.00;100691.66;5074320;28;20128;-52
2021/11/18 04:53:33;;;;;;;0.10;0.10;;;;;;;12.59;100.00;100692.91;5074240;28;20046;-52
2021/11/18 04:56:37;;;;;;;3.45;0.15;;;;;;;12.50;100.00;100702.06;5074130;28;20058;-52
2021/11/18 04:59:41;;;;;;;0.10;0.10;;;;;;;12.46;100.00;100703.47;5074273;28;20051;-52
2021/11/18 05:02:46;;;;;;;0.55;0.40;;;;;;;12.52;100.00;100699.59;5074617;28;20039;-52
2021/11/18 05:05:49;;;;;;;0.32;0.10;;;;;;;12.57;100.00;100703.78;5074032;28;20093;-52
2021/11/18 05:08:52;;;;;;;7.03;0.30;;;;;;;12.60;100.00;100700.06;5074689;28;20046;-52
2021/11/18 05:11:55;;;;;;;0.25;0.10;;;;;;;12.64;100.00;100709.03;5084398;28;20044;-51
2021/11/18 05:14:59;;;;;;;0.20;0.10;;;;;;;12.74;100.00;100705.75;5074243;28;20043;-52
2021/11/18 05:18:03;;;;;;;0.20;0.10;;;;;;;12.67;100.00;100694.91;5073742;28;20060;-51
2021/11/18 05:21:07;;;;;;;0.17;0.15;;;;;;;12.72;100.00;100701.88;5074038;28;20086;-51
2021/11/18 05:24:10;;;;;;;0.10;0.10;;;;;;;12.73;100.00;100697.84;5073787;28;20039;-52
2021/11/18 05:27:13;;;;;;;0.10;0.00;;;;;;;12.74;100.00;100696.59;5073787;28;20056;-51
2021/11/18 05:30:17;;;;;;;0.17;0.13;;;;;;;12.80;100.00;100697.50;5073852;28;20120;-52
2021/11/18 05:33:23;;;;;;;0.10;0.10;;;;;;;12.85;100.00;100711.63;5074155;28;20051;-52
2021/11/18 05:36:27;;;;;;;0.22;0.00;;;;;;;12.94;100.00;100716.41;5073601;28;20046;-52
2021/11/18 05:39:30;;;;;;;0.10;0.10;;;;;;;13.02;100.00;100714.03;5073486;28;20051;-52
2021/11/18 05:42:33;;;;;;;0.10;0.10;;;;;;;13.03;100.00;100713.59;5073584;28;20043;-52
2021/11/18 05:45:36;;;;;;;0.60;0.60;;;;;;;13.13;100.00;100714.34;5073493;28;20043;-52
2021/11/18 05:48:39;;;;;;;9.13;0.30;;;;;;;13.16;100.00;100707.81;5073217;28;20051;-52
2021/11/18 05:51:42;;;;;;;2.35;0.35;;;;;;;13.21;100.00;100710.72;5073196;28;20090;-52
2021/11/18 05:54:45;;;;;;;0.15;0.10;;;;;;;13.22;100.00;100717.13;5073532;28;20054;-52
2021/11/18 05:57:47;;;;;;;0.15;0.10;;;;;;;13.20;100.00;100709.19;5073190;28;20047;-51
2021/11/18 06:00:51;;;;;;;19.02;0.45;;;;;;;13.19;100.00;100724.41;5072814;28;20137;-52
2021/11/18 06:03:54;;;;;;;0.10;0.10;;;;;;;13.21;100.00;100719.13;5072733;28;20051;-52
2021/11/18 06:06:57;;;;;;;0.13;0.10;;;;;;;13.17;100.00;100732.50;5073087;28;20507;-52
2021/11/18 06:10:00;;;;;;;0.10;0.10;;;;;;;13.22;100.00;100734.69;5072863;28;20510;-51
2021/11/18 06:13:03;;;;;;;18.83;0.90;;;;;;;13.07;100.00;100736.59;5073152;28;20488;-52
2021/11/18 06:16:07;;;;;;;0.13;0.10;;;;;;;13.08;100.00;100746.53;5072706;28;20050;-51
2021/11/18 06:19:10;;;;;;;0.63;0.47;;;;;;;13.06;100.00;100756.66;5073112;28;20035;-51
2021/11/18 06:22:12;;;;;;;0.10;0.00;;;;;;;13.08;100.00;100754.16;5072692;28;20532;-51
2021/11/18 06:25:19;;;;;;;0.10;0.10;;;;;;;13.07;100.00;100750.56;5072807;28;20074;-51
2021/11/18 06:28:22;;;;;;;0.50;0.25;;;;;;;13.03;100.00;100761.13;5072391;28;20124;-52
2021/11/18 06:31:25;;;;;;;0.10;0.10;;;;;;;12.96;100.00;100755.84;5071779;28;20047;-52
2021/11/18 06:34:29;;;;;;;4.80;0.75;;;;;;;13.02;100.00;100748.38;5072775;28;20099;-51
2021/11/18 06:37:33;;;;;;;0.50;0.10;;;;;;;12.96;100.00;100753.06;5072677;28;20051;-52
2021/11/18 06:40:35;;;;;;;0.60;0.25;;;;;;;13.00;100.00;100759.25;5072330;28;20135;-51
2021/11/18 06:43:39;;;;;;;0.10;0.10;;;;;;;13.05;100.00;100764.25;5071896;28;20039;-52
2021/11/18 06:46:42;;;;;;;11.18;0.95;;;;;;;13.02;100.00;100762.38;5072573;28;20048;-52
2021/11/18 06:49:45;;;;;;;0.98;0.38;;;;;;;13.05;100.00;100764.25;5072493;28;20512;-51
2021/11/18 06:52:48;;;;;;;0.55;0.20;;;;;;;13.14;100.00;100755.84;5072345;28;20090;-51
2021/11/18 06:55:51;;;;;;;0.20;0.15;;;;;;;13.19;100.00;100757.22;5071583;28;20043;-51
2021/11/18 06:58:55;;;;;;;0.57;0.28;;;;;;;13.14;100.00;100764.25;5071812;28;20059;-51
2021/11/18 07:01:58;;;;;;;0.25;0.15;;;;;;;13.20;100.00;100781.16;5071308;28;20044;-52
2021/11/18 07:05:01;;;;;;;0.30;0.30;;;;;;;13.20;100.00;100776.34;5071008;28;20069;-52
2021/11/18 07:08:08;;;;;;;0.10;0.00;;;;;;;13.23;100.00;100786.56;5071914;28;20102;-52
2021/11/18 07:11:13;;;;;;;3.33;0.10;;;;;;;13.34;100.00;100786.84;5071995;28;20120;-51
2021/11/18 07:14:15;;;;;;;12.48;0.47;;;;;;;13.36;100.00;100789.94;5072384;28;20048;-51
2021/11/18 07:17:19;;;;;;;1.13;0.73;;;;;;;13.40;100.00;100796.16;5072094;28;20055;-52
2021/11/18 07:20:24;;;;;;;0.63;0.40;;;;;;;13.44;100.00;100801.56;5072060;28;20059;-51
2021/11/18 07:23:27;;;;;;;4.03;0.30;;;;;;;13.42;100.00;100818.84;5071975;28;20048;-51
2021/11/18 07:26:32;;;;;;;0.20;0.10;;;;;;;13.42;100.00;100818.84;5071838;28;20051;-51
2021/11/18 07:29:36;;;;;;;0.10;0.10;;;;;;;13.45;100.00;100815.09;5071931;28;20040;-52
2021/11/18 07:32:39;;;;;;;0.88;0.50;;;;;;;13.42;100.00;100826.47;5071940;28;20089;-52
2021/11/18 07:35:42;;;;;;;0.10;0.00;;;;;;;13.45;100.00;100831.09;5071668;28;20040;-52
2021/11/18 07:38:45;;;;;;;0.10;0.10;;;;;;;13.50;100.00;100822.06;5071632;28;20059;-52
2021/11/18 07:41:53;;;;;;;0.10;0.00;;;;;;;13.55;100.00;100822.22;5071913;28;20091;-52
2021/11/18 07:44:57;;;;;;;0.63;0.30;;;;;;;13.59;100.00;100825.63;5071941;28;20094;-52
2021/11/18 07:47:59;;;;;;;0.47;0.28;;;;;;;13.63;100.00;100812.22;5071700;28;20043;-52
2021/11/18 07:51:04;;;;;;;8.30;0.50;;;;;;;13.54;100.00;100817.84;5071758;28;20569;-52
2021/11/18 07:54:11;;;;;;;0.10;0.10;;;;;;;13.52;100.00;100823.16;5070487;28;20376;-52
2021/11/18 07:57:14;;;;;;;0.68;0.08;;;;;;;13.56;100.00;100823.75;5075905;28;20094;-51
2021/11/18 08:00:20;;;;;;;0.47;0.25;;;;;;;13.63;100.00;100815.03;5075235;28;20042;-52
2021/11/18 08:03:24;;;;;;;0.10;0.10;;;;;;;13.64;100.00;100822.16;5074994;28;20396;-52
2021/11/18 08:06:29;;;;;;;0.10;0.00;;;;;;;13.72;100.00;100827.44;5071863;28;20170;-52
2021/11/18 08:09:33;;;;;;;0.47;0.13;;;;;;;13.71;100.00;100835.03;5048622;28;20105;-52
2021/11/18 08:12:36;;;;;;;1.30;0.45;;;;;;;13.79;100.00;100841.09;5051443;28;20112;-52
2021/11/18 08:15:39;;;;;;;1.27;0.10;;;;;;;13.86;100.00;100843.53;5048604;28;20059;-52
2021/11/18 08:18:42;;;;;;;0.17;0.15;;;;;;;13.92;100.00;100852.84;5047320;28;20349;-51
2021/11/18 08:21:47;;;;;;;0.10;0.10;;;;;;;13.92;100.00;100844.44;5050366;28;20578;-52
2021/11/18 08:24:50;;;;;;;0.60;0.60;;;;;;;14.07;100.00;100846.06;5074353;28;20500;-52
2021/11/18 08:27:54;;;;;;;0.10;0.10;;;;;;;14.24;100.00;100840.81;5074676;28;20040;-52
2021/11/18 08:30:58;;;;;;;0.22;0.15;;;;;;;14.42;100.00;100851.97;5074450;28;20418;-52
2021/11/18 08:34:01;;;;;;;0.10;0.10;;;;;;;14.44;100.00;100849.44;5074718;28;20044;-52
2021/11/18 08:37:05;;;;;;;0.65;0.65;;;;;;;14.52;100.00;100838.63;5074297;28;20086;-52
2021/11/18 08:40:11;;;;;;;2.63;0.47;;;;;;;14.57;100.00;100858.38;5074233;28;20551;-52
2021/11/18 08:43:14;;;;;;;1.50;0.10;;;;;;;14.60;100.00;100863.03;5074314;28;20075;-52
2021/11/18 08:46:18;;;;;;;0.45;0.10;;;;;;;14.62;100.00;100868.16;5074491;28;20074;-51
2021/11/18 08:49:22;;;;;;;1.48;0.20;;;;;;;14.75;100.00;100888.31;5074527;28;20058;-52
2021/11/18 08:52:28;;;;;;;0.10;0.10;;;;;;;14.73;100.00;100897.19;5074101;28;20109;-52
2021/11/18 08:55:34;;;;;;;0.20;0.00;;;;;;;14.81;100.00;100901.16;5073890;28;20071;-52
2021/11/18 08:58:40;;;;;;;0.63;0.28;;;;;;;14.86;100.00;100892.09;5073779;28;20043;-52
2021/11/18 09:01:47;;;;;;;1.42;0.52;;;;;;;14.88;100.00;100900.81;5074096;28;20079;-51
2021/11/18 09:04:51;;;;;;;0.20;0.20;;;;;;;14.89;100.00;100885.53;5084548;28;20040;-52
2021/11/18 09:07:54;;;;;;;0.30;0.30;;;;;;;14.97;100.00;100906.34;5073233;28;20052;-52
2021/11/18 09:10:58;;;;;;;0.95;0.25;;;;;;;14.98;100.00;100899.50;5079656;28;20039;-52
2021/11/18 09:14:03;;;;;;;6.40;0.30;;;;;;;14.96;100.00;100906.84;5075496;28;20385;-52
2021/11/18 09:17:09;;;;;;;3.45;0.35;;;;;;;14.96;100.00;100913.22;5075762;28;20534;-51
2021/11/18 09:20:15;;;;;;;0.28;0.10;;;;;;;15.00;100.00;100913.81;5078687;28;20452;-51
2021/11/18 09:23:26;;;;;;;6.95;0.68;;;;;;;14.98;100.00;100921.94;5074268;28;20039;-52
2021/11/18 09:26:35;;;;;;;2.45;0.47;;;;;;;15.00;100.00;100930.66;5073257;28;20121;-51
2021/11/18 09:29:38;;;;;;;2.72;0.75;;;;;;;14.97;100.00;100937.19;5073460;28;20062;-51
2021/11/18 09:32:41;;;;;;;0.10;0.10;;;;;;;14.94;100.00;100935.34;5073462;28;20035;-51
2021/11/18 09:35:48;;;;;;;4.82;0.77;;;;;;;14.95;100.00;100928.50;5073103;28;20067;-52
2021/11/18 09:38:53;;;;;;;1.05;0.40;;;;;;;14.96;100.00;100935.66;5073298;28;20515;-52
2021/11/18 09:42:02;;;;;;;0.60;0.10;;;;;;;14.96;100.00;100932.09;5073294;28;20036;-52
2021/11/18 09:45:11;;;;;;;0.50;0.30;;;;;;;14.97;100.00;100931.59;5073240;28;20047;-51
2021/11/18 09:48:39;;;;;;;6.95;0.75;;;;;;;14.98;100.00;100933.16;5073147;28;20044;-51
2021/11/18 09:52:07;;;;;;;3.80;0.82;;;;;;;15.04;100.00;100934.03;5073080;28;20121;-52
2021/11/18 09:55:19;;;;;;;6.47;1.20;;;;;;;15.13;100.00;100925.53;5073142;28;20569;-52
2021/11/18 09:58:26;;;;;;;1.65;0.55;;;;;;;15.16;100.00;100932.97;5072823;28;20047;-52
2021/11/18 10:01:59;;;;;;;0.43;0.43;;;;;;;15.24;100.00;100932.63;5073061;28;20148;-51
2021/11/18 10:05:07;;;;;;;3.63;0.35;;;;;;;15.34;100.00;100934.06;5072589;28;20067;-52
2021/11/18 10:08:17;;;;;;;0.10;0.10;;;;;;;15.47;100.00;100931.78;5072820;28;20094;-52
2021/11/18 10:11:46;;;;;;;0.13;0.10;;;;;;;15.47;100.00;100934.59;5080707;28;20096;-52
2021/11/18 10:14:52;;;;;;;4.28;0.57;;;;;;;15.58;100.00;100929.19;5072796;28;20039;-51
2021/11/18 10:17:59;;;;;;;2.58;1.27;;;;;;;15.81;100.00;100931.09;5076838;28;20051;-51
2021/11/18 10:21:14;;;;;;;0.93;0.55;;;;;;;15.86;100.00;100927.63;5077928;28;20098;-52
2021/11/18 10:24:23;;;;;;;0.38;0.20;;;;;;;15.89;100.00;100923.84;5071522;28;20051;-52
2021/11/18 10:27:39;;;;;;;0.47;0.25;;;;;;;16.01;100.00;100938.84;5072357;28;20091;-52
2021/11/18 10:30:50;;;;;;;0.47;0.15;;;;;;;16.14;100.00;100936.50;5072363;28;20443;-52
2021/11/18 10:33:52;;;;;;;0.73;0.63;;;;;;;16.23;100.00;100936.38;5072196;28;20071;-52
2021/11/18 10:37:08;;;;;;;2.33;0.38;;;;;;;16.27;100.00;100934.91;5072307;28;20102;-51
2021/11/18 10:40:20;;;;;;;0.70;0.17;;;;;;;16.43;100.00;100945.63;5072163;28;20052;-51
2021/11/18 10:43:28;;;;;;;0.73;0.73;;;;;;;16.44;100.00;100943.59;5072645;28;20376;-52
2021/11/18 10:46:35;;;;;;;2.15;0.30;;;;;;;16.50;100.00;100941.69;5072263;28;20054;-52
2021/11/18 10:49:47;;;;;;;0.30;0.30;;;;;;;16.54;100.00;100942.25;5071720;28;20047;-51
2021/11/18 10:53:27;;;;;;;0.20;0.10;;;;;;;16.42;100.00;100944.06;5071712;28;20055;-52
2021/11/18 10:56:55;;;;;;;2.28;0.30;;;;;;;16.38;100.00;100951.94;5072371;28;20063;-51
2021/11/18 11:00:13;;;;;;;18.95;4.10;;;;;;;16.34;100.00;100959.81;5071928;28;20086;-52
2021/11/18 11:03:22;;;;;;;7.82;1.50;;;;;;;16.27;100.00;100957.41;5072347;28;20495;-52
2021/11/18 11:06:34;;;;;;;0.85;0.75;;;;;;;16.17;100.00;100958.00;5072168;28;20404;-52
2021/11/18 11:09:38;;;;;;;;;;;;;;;16.17;100.00;100947.53;5072065;28;20124;-51
2021/11/18 11:13:04;;;;;;;1.25;0.30;;;;;;;16.16;100.00;100951.59;5072095;28;19924;-52
2021/11/18 11:16:14;;;;;;;0.30;0.13;;;;;;;16.29;100.00;100954.88;5071632;28;20046;-51
2021/11/18 11:19:46;;;;;;;0.10;0.10;;;;;;;16.19;100.00;100950.66;5071824;28;20139;-52
2021/11/18 11:22:52;;;;;;;0.28;0.10;;;;;;;16.37;100.00;100944.75;5071229;28;20558;-52
2021/11/18 11:26:17;;;;;;;0.90;0.52;;;;;;;16.50;100.00;100942.44;5071357;28;20044;-52
2021/11/18 11:29:52;;;;;;;0.90;0.73;;;;;;;16.51;100.00;100941.19;5072105;28;20056;-52
2021/11/18 11:33:24;;;;;;;1.00;0.17;;;;;;;16.62;100.00;100941.34;5075551;28;20170;-51
2021/11/18 11:36:32;;;;;;;1.00;0.20;;;;;;;16.70;100.00;100933.22;5075714;28;20044;-52
2021/11/18 11:39:57;;;;;;;0.80;0.40;;;;;;;16.77;100.00;100941.25;5075369;28;20128;-52
2021/11/18 11:43:35;;;;;;;1.13;0.25;;;;;;;16.82;100.00;100939.78;5075803;28;20531;-52
2021/11/18 11:47:10;;;;;;;0.30;0.15;;;;;;;16.81;100.00;100932.59;5075184;28;20043;-52
2021/11/18 11:50:13;;;;;;;2.08;0.32;;;;;;;16.76;100.00;100938.94;5076331;28;20068;-51
2021/11/18 11:53:28;;;;;;;0.20;0.10;;;;;;;16.71;100.00;100936.81;5092887;28;20098;-52
2021/11/18 11:56:38;;;;;;;1.70;0.38;;;;;;;16.64;100.00;100941.59;5092948;28;20039;-51
2021/11/18 11:59:46;;;;;;;0.38;0.30;;;;;;;16.55;100.00;100944.53;5092663;28;20082;-52
2021/11/18 12:03:14;;;;;;;2.20;0.77;;;;;;;16.58;100.00;100949.19;5074577;28;20564;-51
2021/11/18 12:06:28;;;;;;;2.10;0.85;;;;;;;16.54;100.00;100945.84;5074887;28;20079;-51
2021/11/18 12:09:39;;;;;;;7.97;0.22;;;;;;;16.60;100.00;100946.66;5074320;28;20405;-51
2021/11/18 12:13:12;;;;;;;0.95;0.52;;;;;;;16.75;100.00;100957.06;5075061;28;20083;-51
2021/11/18 12:16:18;;;;;;;1.27;0.45;;;;;;;16.80;100.00;100945.13;5088884;28;20483;-51
2021/11/18 12:19:31;;;;;;;2.60;0.50;;;;;;;16.94;100.00;100947.09;5075182;28;20043;-51
2021/11/18 12:22:34;;;;;;;0.28;0.10;;;;;;;16.95;100.00;100946.63;5074659;28;20119;-51
2021/11/18 12:25:45;;;;;;;1.15;0.30;;;;;;;16.91;100.00;100948.09;5075053;28;20048;-51
2021/11/18 12:29:05;;;;;;;0.10;0.00;;;;;;;16.91;100.00;100948.09;5074581;28;20094;-52
2021/11/18 12:32:08;;;;;;;3.53;0.20;;;;;;;16.95;100.00;100959.91;5074474;28;20056;-51
2021/11/18 12:35:13;;;;;;;0.63;0.35;;;;;;;16.97;100.00;100951.75;5074484;28;20572;-51
2021/11/18 12:38:26;;;;;;;0.52;0.40;;;;;;;16.92;100.00;100950.41;5073890;28;20150;-52
2021/11/18 12:41:42;;;;;;;0.38;0.30;;;;;;;16.77;100.00;100948.91;5073715;28;20180;-51
2021/11/18 12:45:12;;;;;;;0.30;0.30;;;;;;;16.79;100.00;100954.81;5078464;28;20142;-51
2021/11/18 12:48:24;;;;;;;0.20;0.20;;;;;;;16.77;100.00;100954.53;5074153;28;20094;-51
2021/11/18 12:51:45;;;;;;;0.40;0.13;;;;;;;16.82;100.00;100963.06;5074972;28;20431;-52
2021/11/18 12:55:13;;;;;;;0.30;0.30;;;;;;;16.88;100.00;100960.31;5074222;28;20070;-51
2021/11/18 12:58:25;;;;;;;5.10;0.30;;;;;;;16.94;100.00;100961.16;5073966;28;20065;-51
2021/11/18 13:01:29;;;;;;;0.82;0.20;;;;;;;16.93;100.00;100968.06;5072856;28;20044;-52
2021/11/18 13:04:57;;;;;;;0.88;0.10;;;;;;;16.91;100.00;100976.22;5073606;28;20186;-53
2021/11/18 13:08:08;;;;;;;3.70;0.28;;;;;;;16.89;100.00;100973.13;5074438;28;20042;-52
2021/11/18 13:11:24;;;;;;;0.10;0.10;;;;;;;16.87;100.00;100959.53;5074157;28;20047;-52
2021/11/18 13:14:53;;;;;;;0.20;0.10;;;;;;;16.98;100.00;100947.66;5079997;28;20047;-52
2021/11/18 13:17:59;;;;;;;0.65;0.10;;;;;;;17.21;100.00;100941.03;5082002;28;20043;-52
2021/11/18 13:21:24;;;;;;;2.17;0.70;;;;;;;17.40;100.00;100945.84;5074139;28;20416;-52
2021/11/18 13:24:36;;;;;;;1.67;0.20;;;;;;;17.57;100.00;100929.13;5073600;28;20044;-51
2021/11/18 13:27:48;;;;;;;0.75;0.17;;;;;;;17.77;100.00;100920.63;5073291;28;20074;-52
2021/11/18 13:30:55;;;;;;;0.22;0.20;;;;;;;17.78;100.00;100919.31;5073432;28;20137;-51
2021/11/18 13:34:10;;;;;;;0.60;0.00;;;;;;;17.75;100.00;100916.75;5073268;28;20115;-51
2021/11/18 13:37:13;;;;;;;2.20;0.43;;;;;;;17.67;100.00;100907.94;5073590;28;20051;-51
2021/11/18 13:40:25;;;;;;;9.32;1.23;;;;;;;17.67;100.00;100902.31;5073113;28;20125;-51
2021/11/18 13:43:45;;;;;;;0.47;0.10;;;;;;;17.54;100.00;100890.72;5073184;28;20048;-49
2021/11/18 13:46:58;;;;;;;0.10;0.05;;;;;;;17.49;100.00;100891.41;5072955;28;20051;-49
2021/11/18 13:50:13;;;;;;;1.10;0.43;;;;;;;17.52;100.00;100890.41;5073176;28;20059;-49
2021/11/18 13:53:20;;;;;;;0.40;0.38;;;;;;;17.50;100.00;100884.50;5078320;28;20039;-49
2021/11/18 13:56:35;;;;;;;2.42;1.08;;;;;;;17.48;100.00;100878.56;5078794;28;20101;-49
2021/11/18 13:59:51;;;;;;;0.10;0.10;;;;;;;17.53;100.00;100875.06;5072944;28;20124;-54
2021/11/18 14:03:20;;;;;;;0.55;0.55;;;;;;;17.62;100.00;100872.06;5072592;28;20529;-54
2021/11/18 14:06:27;;;;;;;0.85;0.10;;;;;;;17.74;100.00;100873.69;5072526;28;20085;-54
2021/11/18 14:09:40;;;;;;;3.83;0.13;;;;;;;17.77;100.00;100867.06;5072428;28;20090;-53
2021/11/18 14:12:54;;;;;;;0.20;0.20;;;;;;;17.69;100.00;100882.13;5073281;28;20039;-50
2021/11/18 14:16:03;;;;;;;0.40;0.25;;;;;;;17.67;100.00;100887.47;5083131;28;20051;-52
2021/11/18 14:19:05;;;;;;;0.20;0.10;;;;;;;17.62;100.00;100894.63;5072620;28;20098;-53
2021/11/18 14:22:11;;;;;;;0.30;0.30;;;;;;;17.57;100.00;100886.88;5072741;28;20043;-50